Tompkinsville, KY (42167)

4:14 PM CDT on April 27, 2015 (GMT -0500)
Center Point Ky | | Change Station
CLOSE
Current Station
Personal Weather Station
Location: Tompkinsville, KY
Elevation: 740 ft
Nearby Weather Stations

Elev 740 ft 36.72 °N, 85.51 °W | Updated 1 minute ago

Partly Cloudy
Partly Cloudy
70.2 °F
Feels Like 77 °F
N
3.2
Wind Variable Wind from WNW

Today
High -- | Low -- °F
--% Chance of Precip.
Yesterday
High -- | Low -- °F
Precip. -- in
5:53 AM 7:27 PM
Waxing Gibbous, 68% visible
Pressure 29.96 in
Visibility 10.0 miles
Clouds Scattered Clouds 6500 ft
Heat Index 77 °F
Dew Point 42 °F
Humidity 36%
Rainfall 0.00 in
Snow Depth Not available.
UV 5 out of 12
Pollen 9.30 out of 12
Air Quality Not available.
Flu Activity Local Activity
METAR KGLW 272030Z AUTO 33004KT 10SM SCT065 18/02 A2996 RMK AO2 T01830017

More Conditions Fewer Conditions

Pressure 29.96 in
Visibility 10.0 miles
Clouds Scattered Clouds 6500 ft
Heat Index 77 °F
Dew Point 42 °F
Humidity 36%
Rainfall 0.00 in
Snow Depth Not available.
UV 5 out of 12
Pollen 9.30 out of 12
Air Quality Not available.
Flu Activity Local Activity
METAR KGLW 272030Z AUTO 33004KT 10SM SCT065 18/02 A2996 RMK AO2 T01830017

More Conditions Fewer Conditions

10-Day Weather Forecast

Almanac

Astronomy

Apr. 27, 2015 Rise Set
Actual Time
Civil Twilight
Nautical Twilight
Astronomical Twilight
Moon
Length of Visible Light
Length of Day
Tomorrow will be .
, % of the Moon is Illuminated

Today's Extremes

State Highs State Lows

Community

WunderPhotos

Upload Photos

1,817,429 photos uploaded!

WunderBlogs® & News

Nearby

Air Quality

  Air Quality AQ Index Pollutant
Not available.

Snow Depth

Station Depth Elevation

Earthquake Activity

City Distance Mag. Time & Date
Minimum magnitude displayed is 2.5.

Coastal Water Temperatures

Place Temperature

Stations

Nearby Weather Stations

Station Location Temp. Windchill Dew Point Humidity Wind Precip. Elev Updated Type